sensor_id;sensor_type;location;lat;lon;timestamp;temperature;humidity
29321;DHT22;16323;51.130;6.612;2022-12-18T00:00:46;13.60;44.70
29321;DHT22;16323;51.130;6.612;2022-12-18T00:03:13;13.60;44.70
29321;DHT22;16323;51.130;6.612;2022-12-18T00:05:46;13.60;44.80
29321;DHT22;16323;51.130;6.612;2022-12-18T00:08:13;13.60;44.80
29321;DHT22;16323;51.130;6.612;2022-12-18T00:10:40;13.60;44.80
29321;DHT22;16323;51.130;6.612;2022-12-18T00:13:07;13.60;44.90
29321;DHT22;16323;51.130;6.612;2022-12-18T00:15:36;13.60;45.10
29321;DHT22;16323;51.130;6.612;2022-12-18T00:18:03;13.60;44.80
29321;DHT22;16323;51.130;6.612;2022-12-18T00:20:30;13.60;44.60
29321;DHT22;16323;51.130;6.612;2022-12-18T00:22:56;13.70;44.80
29321;DHT22;16323;51.130;6.612;2022-12-18T00:25:23;13.70;44.50
29321;DHT22;16323;51.130;6.612;2022-12-18T00:27:50;13.60;44.20
29321;DHT22;16323;51.130;6.612;2022-12-18T00:30:17;13.70;44.50
29321;DHT22;16323;51.130;6.612;2022-12-18T00:32:45;13.60;44.40
29321;DHT22;16323;51.130;6.612;2022-12-18T00:35:12;13.60;44.40
29321;DHT22;16323;51.130;6.612;2022-12-18T00:37:39;13.60;44.50
29321;DHT22;16323;51.130;6.612;2022-12-18T00:40:07;13.60;44.40
29321;DHT22;16323;51.130;6.612;2022-12-18T00:42:34;13.60;44.70
29321;DHT22;16323;51.130;6.612;2022-12-18T00:45:18;13.60;44.40
29321;DHT22;16323;51.130;6.612;2022-12-18T00:47:46;13.60;44.50
29321;DHT22;16323;51.130;6.612;2022-12-18T00:50:13;13.60;44.40
29321;DHT22;16323;51.130;6.612;2022-12-18T00:52:40;13.60;44.50
29321;DHT22;16323;51.130;6.612;2022-12-18T00:55:08;13.60;44.20
29321;DHT22;16323;51.130;6.612;2022-12-18T00:57:35;13.60;44.50
29321;DHT22;16323;51.130;6.612;2022-12-18T01:00:03;13.70;44.40
29321;DHT22;16323;51.130;6.612;2022-12-18T01:02:30;13.70;44.30
29321;DHT22;16323;51.130;6.612;2022-12-18T01:04:58;13.70;44.30
29321;DHT22;16323;51.130;6.612;2022-12-18T01:07:25;13.70;44.00
29321;DHT22;16323;51.130;6.612;2022-12-18T01:09:52;13.70;44.10
29321;DHT22;16323;51.130;6.612;2022-12-18T01:12:20;13.60;44.00
29321;DHT22;16323;51.130;6.612;2022-12-18T01:14:46;13.60;44.10
29321;DHT22;16323;51.130;6.612;2022-12-18T01:17:13;13.60;44.10
29321;DHT22;16323;51.130;6.612;2022-12-18T01:19:40;13.60;44.10
29321;DHT22;16323;51.130;6.612;2022-12-18T01:22:08;13.60;44.10
29321;DHT22;16323;51.130;6.612;2022-12-18T01:24:35;13.60;44.00
29321;DHT22;16323;51.130;6.612;2022-12-18T01:27:02;13.60;44.10
29321;DHT22;16323;51.130;6.612;2022-12-18T01:29:29;13.60;44.10
29321;DHT22;16323;51.130;6.612;2022-12-18T01:31:56;13.60;44.20
29321;DHT22;16323;51.130;6.612;2022-12-18T01:34:23;13.50;44.10
29321;DHT22;16323;51.130;6.612;2022-12-18T01:36:50;13.60;44.40
29321;DHT22;16323;51.130;6.612;2022-12-18T01:39:18;13.60;44.30
29321;DHT22;16323;51.130;6.612;2022-12-18T01:41:46;13.70;44.30
29321;DHT22;16323;51.130;6.612;2022-12-18T01:45:05;13.70;44.50
29321;DHT22;16323;51.130;6.612;2022-12-18T01:47:36;13.70;44.00
29321;DHT22;16323;51.130;6.612;2022-12-18T01:50:06;13.60;43.80
29321;DHT22;16323;51.130;6.612;2022-12-18T01:52:33;13.60;43.80
29321;DHT22;16323;51.130;6.612;2022-12-18T01:55:05;13.60;43.70
29321;DHT22;16323;51.130;6.612;2022-12-18T01:57:32;13.60;43.70
29321;DHT22;16323;51.130;6.612;2022-12-18T02:00:01;13.60;43.70
29321;DHT22;16323;51.130;6.612;2022-12-18T02:02:29;13.60;43.70
29321;DHT22;16323;51.130;6.612;2022-12-18T02:04:56;13.60;43.70
29321;DHT22;16323;51.130;6.612;2022-12-18T02:07:30;13.60;43.70
29321;DHT22;16323;51.130;6.612;2022-12-18T02:10:03;13.60;43.80
29321;DHT22;16323;51.130;6.612;2022-12-18T02:12:38;13.60;43.70
29321;DHT22;16323;51.130;6.612;2022-12-18T02:15:12;13.50;43.70
29321;DHT22;16323;51.130;6.612;2022-12-18T02:17:43;13.60;43.80
29321;DHT22;16323;51.130;6.612;2022-12-18T02:20:17;13.60;43.70
29321;DHT22;16323;51.130;6.612;2022-12-18T02:22:57;13.60;43.70
29321;DHT22;16323;51.130;6.612;2022-12-18T02:25:40;13.70;43.60
29321;DHT22;16323;51.130;6.612;2022-12-18T02:28:13;13.60;43.30
29321;DHT22;16323;51.130;6.612;2022-12-18T02:30:42;13.60;43.20
29321;DHT22;16323;51.130;6.612;2022-12-18T02:33:11;13.60;43.20
29321;DHT22;16323;51.130;6.612;2022-12-18T02:35:40;13.60;43.30
29321;DHT22;16323;51.130;6.612;2022-12-18T02:38:08;13.60;43.30
29321;DHT22;16323;51.130;6.612;2022-12-18T02:40:36;13.60;43.40
29321;DHT22;16323;51.130;6.612;2022-12-18T02:43:07;13.50;43.30
29321;DHT22;16323;51.130;6.612;2022-12-18T02:45:35;13.60;43.40
29321;DHT22;16323;51.130;6.612;2022-12-18T02:48:03;13.60;43.30
29321;DHT22;16323;51.130;6.612;2022-12-18T02:50:35;13.50;43.40
29321;DHT22;16323;51.130;6.612;2022-12-18T02:53:12;13.60;43.40
29321;DHT22;16323;51.130;6.612;2022-12-18T02:55:48;13.60;43.60
29321;DHT22;16323;51.130;6.612;2022-12-18T02:58:23;13.60;43.60
29321;DHT22;16323;51.130;6.612;2022-12-18T03:00:59;13.60;43.40
29321;DHT22;16323;51.130;6.612;2022-12-18T03:03:30;13.60;43.30
29321;DHT22;16323;51.130;6.612;2022-12-18T03:06:01;13.60;43.20
29321;DHT22;16323;51.130;6.612;2022-12-18T03:08:31;13.60;42.90
29321;DHT22;16323;51.130;6.612;2022-12-18T03:11:02;13.60;43.00
29321;DHT22;16323;51.130;6.612;2022-12-18T03:13:32;13.60;43.10
29321;DHT22;16323;51.130;6.612;2022-12-18T03:16:02;13.60;43.00
29321;DHT22;16323;51.130;6.612;2022-12-18T03:18:32;13.60;42.90
29321;DHT22;16323;51.130;6.612;2022-12-18T03:21:06;13.50;43.00
29321;DHT22;16323;51.130;6.612;2022-12-18T03:23:36;13.60;43.00
29321;DHT22;16323;51.130;6.612;2022-12-18T03:26:07;13.60;43.10
29321;DHT22;16323;51.130;6.612;2022-12-18T03:28:38;13.50;43.10
29321;DHT22;16323;51.130;6.612;2022-12-18T03:31:10;13.50;43.10
29321;DHT22;16323;51.130;6.612;2022-12-18T03:33:41;13.50;43.20
29321;DHT22;16323;51.130;6.612;2022-12-18T03:36:11;13.60;43.30
29321;DHT22;16323;51.130;6.612;2022-12-18T03:38:38;13.60;43.30
29321;DHT22;16323;51.130;6.612;2022-12-18T03:41:10;13.60;43.20
29321;DHT22;16323;51.130;6.612;2022-12-18T03:43:48;13.60;42.90
29321;DHT22;16323;51.130;6.612;2022-12-18T03:46:24;13.60;42.90
29321;DHT22;16323;51.130;6.612;2022-12-18T03:48:58;13.60;42.70
29321;DHT22;16323;51.130;6.612;2022-12-18T03:51:30;13.60;42.80
29321;DHT22;16323;51.130;6.612;2022-12-18T03:54:02;13.60;42.90
29321;DHT22;16323;51.130;6.612;2022-12-18T03:56:33;13.60;42.80
29321;DHT22;16323;51.130;6.612;2022-12-18T03:59:02;13.60;42.70
29321;DHT22;16323;51.130;6.612;2022-12-18T04:01:32;13.60;42.80
29321;DHT22;16323;51.130;6.612;2022-12-18T04:04:01;13.60;42.80
29321;DHT22;16323;51.130;6.612;2022-12-18T04:06:29;13.50;43.90
29321;DHT22;16323;51.130;6.612;2022-12-18T04:08:57;13.50;42.60
29321;DHT22;16323;51.130;6.612;2022-12-18T04:11:25;13.50;42.70
29321;DHT22;16323;51.130;6.612;2022-12-18T04:13:55;13.50;42.80
29321;DHT22;16323;51.130;6.612;2022-12-18T04:16:22;13.50;42.30
29321;DHT22;16323;51.130;6.612;2022-12-18T04:18:51;13.50;41.40
29321;DHT22;16323;51.130;6.612;2022-12-18T04:21:17;13.50;40.80
29321;DHT22;16323;51.130;6.612;2022-12-18T04:23:44;13.50;40.70
29321;DHT22;16323;51.130;6.612;2022-12-18T04:26:11;13.40;40.20
29321;DHT22;16323;51.130;6.612;2022-12-18T04:28:38;13.40;40.00
29321;DHT22;16323;51.130;6.612;2022-12-18T04:31:05;13.30;40.40
29321;DHT22;16323;51.130;6.612;2022-12-18T04:33:32;13.30;40.30
29321;DHT22;16323;51.130;6.612;2022-12-18T04:36:00;13.30;40.20
29321;DHT22;16323;51.130;6.612;2022-12-18T04:38:27;13.20;39.90
29321;DHT22;16323;51.130;6.612;2022-12-18T04:40:53;13.20;39.70
29321;DHT22;16323;51.130;6.612;2022-12-18T04:43:20;13.30;40.20
29321;DHT22;16323;51.130;6.612;2022-12-18T04:45:47;13.30;40.50
29321;DHT22;16323;51.130;6.612;2022-12-18T04:48:14;13.40;40.70
29321;DHT22;16323;51.130;6.612;2022-12-18T04:50:41;13.40;40.70
29321;DHT22;16323;51.130;6.612;2022-12-18T04:53:09;13.40;40.00
29321;DHT22;16323;51.130;6.612;2022-12-18T04:55:36;13.40;39.70
29321;DHT22;16323;51.130;6.612;2022-12-18T04:58:02;13.40;39.30
29321;DHT22;16323;51.130;6.612;2022-12-18T05:00:29;13.40;39.30
29321;DHT22;16323;51.130;6.612;2022-12-18T05:02:56;13.40;39.20
29321;DHT22;16323;51.130;6.612;2022-12-18T05:05:23;13.40;39.10
29321;DHT22;16323;51.130;6.612;2022-12-18T05:07:49;13.30;38.70
29321;DHT22;16323;51.130;6.612;2022-12-18T05:10:18;13.30;38.70
29321;DHT22;16323;51.130;6.612;2022-12-18T05:12:44;13.30;38.90
29321;DHT22;16323;51.130;6.612;2022-12-18T05:15:28;13.30;39.00
29321;DHT22;16323;51.130;6.612;2022-12-18T05:17:55;13.30;38.90
29321;DHT22;16323;51.130;6.612;2022-12-18T05:20:22;13.30;38.70
29321;DHT22;16323;51.130;6.612;2022-12-18T05:22:49;13.30;38.70
29321;DHT22;16323;51.130;6.612;2022-12-18T05:25:18;13.30;38.60
29321;DHT22;16323;51.130;6.612;2022-12-18T05:27:45;13.30;38.60
29321;DHT22;16323;51.130;6.612;2022-12-18T05:30:13;13.20;38.30
29321;DHT22;16323;51.130;6.612;2022-12-18T05:32:41;13.30;38.50
29321;DHT22;16323;51.130;6.612;2022-12-18T05:35:09;13.20;38.20
29321;DHT22;16323;51.130;6.612;2022-12-18T05:37:36;13.20;38.10
29321;DHT22;16323;51.130;6.612;2022-12-18T05:40:04;13.20;37.90
29321;DHT22;16323;51.130;6.612;2022-12-18T05:42:32;13.30;37.90
29321;DHT22;16323;51.130;6.612;2022-12-18T05:44:59;13.30;37.90
29321;DHT22;16323;51.130;6.612;2022-12-18T05:47:27;13.30;37.70
29321;DHT22;16323;51.130;6.612;2022-12-18T05:49:54;13.30;37.60
29321;DHT22;16323;51.130;6.612;2022-12-18T05:52:20;13.30;37.70
29321;DHT22;16323;51.130;6.612;2022-12-18T05:54:47;13.30;37.70
29321;DHT22;16323;51.130;6.612;2022-12-18T05:57:14;13.30;42.20
29321;DHT22;16323;51.130;6.612;2022-12-18T05:59:42;13.30;41.20
29321;DHT22;16323;51.130;6.612;2022-12-18T06:02:09;13.30;40.20
29321;DHT22;16323;51.130;6.612;2022-12-18T06:04:36;13.30;39.50
29321;DHT22;16323;51.130;6.612;2022-12-18T06:07:02;13.30;38.90
29321;DHT22;16323;51.130;6.612;2022-12-18T06:09:29;13.30;38.60
29321;DHT22;16323;51.130;6.612;2022-12-18T06:11:56;13.30;38.60
29321;DHT22;16323;51.130;6.612;2022-12-18T06:14:23;13.20;38.30
29321;DHT22;16323;51.130;6.612;2022-12-18T06:16:51;13.20;38.10
29321;DHT22;16323;51.130;6.612;2022-12-18T06:19:18;13.20;37.90
29321;DHT22;16323;51.130;6.612;2022-12-18T06:21:45;13.20;37.60
29321;DHT22;16323;51.130;6.612;2022-12-18T06:24:11;13.30;37.60
29321;DHT22;16323;51.130;6.612;2022-12-18T06:26:38;13.20;37.30
29321;DHT22;16323;51.130;6.612;2022-12-18T06:29:06;13.20;37.30
29321;DHT22;16323;51.130;6.612;2022-12-18T06:31:32;13.20;37.30
29321;DHT22;16323;51.130;6.612;2022-12-18T06:34:02;13.20;37.30
29321;DHT22;16323;51.130;6.612;2022-12-18T06:36:29;13.20;37.20
29321;DHT22;16323;51.130;6.612;2022-12-18T06:38:56;13.20;37.20
29321;DHT22;16323;51.130;6.612;2022-12-18T06:41:23;13.20;37.10
29321;DHT22;16323;51.130;6.612;2022-12-18T06:43:50;13.10;37.00
29321;DHT22;16323;51.130;6.612;2022-12-18T06:46:17;13.20;37.10
29321;DHT22;16323;51.130;6.612;2022-12-18T06:48:47;13.10;36.90
29321;DHT22;16323;51.130;6.612;2022-12-18T06:51:17;13.10;37.00
29321;DHT22;16323;51.130;6.612;2022-12-18T06:53:44;13.10;37.00
29321;DHT22;16323;51.130;6.612;2022-12-18T06:56:11;13.10;36.70
29321;DHT22;16323;51.130;6.612;2022-12-18T06:58:38;13.20;36.70
29321;DHT22;16323;51.130;6.612;2022-12-18T07:01:07;13.10;36.40
29321;DHT22;16323;51.130;6.612;2022-12-18T07:03:34;13.20;36.50
29321;DHT22;16323;51.130;6.612;2022-12-18T07:06:01;13.20;36.50
29321;DHT22;16323;51.130;6.612;2022-12-18T07:08:30;13.20;36.30
29321;DHT22;16323;51.130;6.612;2022-12-18T07:10:56;13.10;36.20
29321;DHT22;16323;51.130;6.612;2022-12-18T07:13:23;13.10;36.40
29321;DHT22;16323;51.130;6.612;2022-12-18T07:15:50;13.10;36.40
29321;DHT22;16323;51.130;6.612;2022-12-18T07:18:17;13.10;36.50
29321;DHT22;16323;51.130;6.612;2022-12-18T07:20:44;13.10;36.50
29321;DHT22;16323;51.130;6.612;2022-12-18T07:23:10;13.10;36.50
29321;DHT22;16323;51.130;6.612;2022-12-18T07:25:39;13.10;36.50
29321;DHT22;16323;51.130;6.612;2022-12-18T07:28:05;13.10;36.50
29321;DHT22;16323;51.130;6.612;2022-12-18T07:30:32;13.10;36.30
29321;DHT22;16323;51.130;6.612;2022-12-18T07:32:59;13.10;36.30
29321;DHT22;16323;51.130;6.612;2022-12-18T07:35:26;13.10;36.30
29321;DHT22;16323;51.130;6.612;2022-12-18T07:37:53;13.10;36.30
29321;DHT22;16323;51.130;6.612;2022-12-18T07:40:20;13.10;36.10
29321;DHT22;16323;51.130;6.612;2022-12-18T07:42:48;13.10;35.90
29321;DHT22;16323;51.130;6.612;2022-12-18T07:45:15;13.10;35.90
29321;DHT22;16323;51.130;6.612;2022-12-18T07:47:41;13.10;35.80
29321;DHT22;16323;51.130;6.612;2022-12-18T07:50:09;13.10;35.80
29321;DHT22;16323;51.130;6.612;2022-12-18T07:52:36;13.10;35.80
29321;DHT22;16323;51.130;6.612;2022-12-18T07:55:03;13.10;35.80
29321;DHT22;16323;51.130;6.612;2022-12-18T07:57:30;13.10;35.90
29321;DHT22;16323;51.130;6.612;2022-12-18T07:59:58;13.10;36.00
29321;DHT22;16323;51.130;6.612;2022-12-18T08:02:25;13.10;35.90
29321;DHT22;16323;51.130;6.612;2022-12-18T08:04:51;13.10;35.90
29321;DHT22;16323;51.130;6.612;2022-12-18T08:07:19;13.10;36.00
29321;DHT22;16323;51.130;6.612;2022-12-18T08:09:46;13.10;36.10
29321;DHT22;16323;51.130;6.612;2022-12-18T08:12:13;13.10;36.00
29321;DHT22;16323;51.130;6.612;2022-12-18T08:14:39;13.10;36.00
29321;DHT22;16323;51.130;6.612;2022-12-18T08:17:07;13.10;36.00
29321;DHT22;16323;51.130;6.612;2022-12-18T08:19:34;13.10;35.80
29321;DHT22;16323;51.130;6.612;2022-12-18T08:22:01;13.10;35.70
29321;DHT22;16323;51.130;6.612;2022-12-18T08:24:28;13.10;35.60
29321;DHT22;16323;51.130;6.612;2022-12-18T08:26:54;13.10;35.50
29321;DHT22;16323;51.130;6.612;2022-12-18T08:29:22;13.10;35.50
29321;DHT22;16323;51.130;6.612;2022-12-18T08:31:49;13.10;35.40
29321;DHT22;16323;51.130;6.612;2022-12-18T08:34:17;13.20;35.50
29321;DHT22;16323;51.130;6.612;2022-12-18T08:36:44;13.10;35.60
29321;DHT22;16323;51.130;6.612;2022-12-18T08:39:10;13.10;35.70
29321;DHT22;16323;51.130;6.612;2022-12-18T08:41:37;13.10;35.70
29321;DHT22;16323;51.130;6.612;2022-12-18T08:44:04;13.10;35.70
29321;DHT22;16323;51.130;6.612;2022-12-18T08:46:49;13.20;35.80
29321;DHT22;16323;51.130;6.612;2022-12-18T08:49:18;13.10;35.90
29321;DHT22;16323;51.130;6.612;2022-12-18T08:51:44;13.10;37.00
29321;DHT22;16323;51.130;6.612;2022-12-18T08:54:12;13.10;35.80
29321;DHT22;16323;51.130;6.612;2022-12-18T08:56:39;13.10;35.80
29321;DHT22;16323;51.130;6.612;2022-12-18T08:59:06;13.10;35.60
29321;DHT22;16323;51.130;6.612;2022-12-18T09:01:33;13.20;38.50
29321;DHT22;16323;51.130;6.612;2022-12-18T09:04:00;13.30;39.90
29321;DHT22;16323;51.130;6.612;2022-12-18T09:06:28;13.30;38.40
29321;DHT22;16323;51.130;6.612;2022-12-18T09:08:54;13.30;37.70
29321;DHT22;16323;51.130;6.612;2022-12-18T09:11:23;13.30;37.20
29321;DHT22;16323;51.130;6.612;2022-12-18T09:13:52;13.30;37.00
29321;DHT22;16323;51.130;6.612;2022-12-18T09:16:19;13.20;36.60
29321;DHT22;16323;51.130;6.612;2022-12-18T09:18:47;13.20;36.60
29321;DHT22;16323;51.130;6.612;2022-12-18T09:21:16;13.20;36.60
29321;DHT22;16323;51.130;6.612;2022-12-18T09:23:49;13.20;36.60
29321;DHT22;16323;51.130;6.612;2022-12-18T09:26:16;13.20;36.60
29321;DHT22;16323;51.130;6.612;2022-12-18T09:28:43;13.20;36.50
29321;DHT22;16323;51.130;6.612;2022-12-18T09:31:11;13.20;36.50
29321;DHT22;16323;51.130;6.612;2022-12-18T09:33:38;13.20;36.50
29321;DHT22;16323;51.130;6.612;2022-12-18T09:36:07;13.20;36.50
29321;DHT22;16323;51.130;6.612;2022-12-18T09:38:35;13.20;36.40
29321;DHT22;16323;51.130;6.612;2022-12-18T09:41:13;13.20;36.40
29321;DHT22;16323;51.130;6.612;2022-12-18T09:43:45;13.20;36.30
29321;DHT22;16323;51.130;6.612;2022-12-18T09:46:17;13.20;36.30
29321;DHT22;16323;51.130;6.612;2022-12-18T09:48:47;13.20;36.20
29321;DHT22;16323;51.130;6.612;2022-12-18T09:51:18;13.20;36.00
29321;DHT22;16323;51.130;6.612;2022-12-18T09:53:52;13.20;36.10
29321;DHT22;16323;51.130;6.612;2022-12-18T09:56:22;13.20;36.10
29321;DHT22;16323;51.130;6.612;2022-12-18T09:58:56;13.20;36.20
29321;DHT22;16323;51.130;6.612;2022-12-18T10:01:24;13.20;36.30
29321;DHT22;16323;51.130;6.612;2022-12-18T10:03:52;13.20;36.30
29321;DHT22;16323;51.130;6.612;2022-12-18T10:06:23;13.20;36.90
29321;DHT22;16323;51.130;6.612;2022-12-18T10:08:55;13.20;37.80
29321;DHT22;16323;51.130;6.612;2022-12-18T10:11:34;13.30;37.40
29321;DHT22;16323;51.130;6.612;2022-12-18T10:14:11;13.30;36.80
29321;DHT22;16323;51.130;6.612;2022-12-18T10:16:50;13.30;36.80
29321;DHT22;16323;51.130;6.612;2022-12-18T10:19:33;13.30;36.60
29321;DHT22;16323;51.130;6.612;2022-12-18T10:22:08;13.30;36.70
29321;DHT22;16323;51.130;6.612;2022-12-18T10:24:42;13.30;36.40
29321;DHT22;16323;51.130;6.612;2022-12-18T10:27:15;13.30;36.30
29321;DHT22;16323;51.130;6.612;2022-12-18T10:29:42;13.30;36.20
29321;DHT22;16323;51.130;6.612;2022-12-18T10:32:14;13.40;36.40
29321;DHT22;16323;51.130;6.612;2022-12-18T10:34:45;13.40;36.40
29321;DHT22;16323;51.130;6.612;2022-12-18T10:37:16;13.40;36.40
29321;DHT22;16323;51.130;6.612;2022-12-18T10:39:44;13.40;36.30
29321;DHT22;16323;51.130;6.612;2022-12-18T10:42:17;13.40;36.20
29321;DHT22;16323;51.130;6.612;2022-12-18T10:44:44;13.40;36.30
29321;DHT22;16323;51.130;6.612;2022-12-18T10:47:14;13.40;36.30
29321;DHT22;16323;51.130;6.612;2022-12-18T10:49:47;13.40;36.40
29321;DHT22;16323;51.130;6.612;2022-12-18T10:52:18;13.40;36.40
29321;DHT22;16323;51.130;6.612;2022-12-18T10:54:50;13.40;36.30
29321;DHT22;16323;51.130;6.612;2022-12-18T10:57:30;13.40;36.40
29321;DHT22;16323;51.130;6.612;2022-12-18T10:59:59;13.40;36.20
29321;DHT22;16323;51.130;6.612;2022-12-18T11:02:33;13.40;36.00
29321;DHT22;16323;51.130;6.612;2022-12-18T11:05:01;13.40;36.00
29321;DHT22;16323;51.130;6.612;2022-12-18T11:07:47;13.40;35.90
29321;DHT22;16323;51.130;6.612;2022-12-18T11:10:16;13.40;35.90
29321;DHT22;16323;51.130;6.612;2022-12-18T11:12:45;13.40;35.90
29321;DHT22;16323;51.130;6.612;2022-12-18T11:15:16;13.40;35.90
29321;DHT22;16323;51.130;6.612;2022-12-18T11:17:48;13.40;35.90
29321;DHT22;16323;51.130;6.612;2022-12-18T11:20:23;13.40;35.80
29321;DHT22;16323;51.130;6.612;2022-12-18T11:22:56;13.40;36.00
29321;DHT22;16323;51.130;6.612;2022-12-18T11:25:24;13.40;37.70
29321;DHT22;16323;51.130;6.612;2022-12-18T11:27:55;13.40;37.80
29321;DHT22;16323;51.130;6.612;2022-12-18T11:30:24;13.40;37.40
29321;DHT22;16323;51.130;6.612;2022-12-18T11:32:58;13.40;36.90
29321;DHT22;16323;51.130;6.612;2022-12-18T11:35:34;13.40;36.60
29321;DHT22;16323;51.130;6.612;2022-12-18T11:38:06;13.40;36.70
29321;DHT22;16323;51.130;6.612;2022-12-18T11:40:38;13.40;36.70
29321;DHT22;16323;51.130;6.612;2022-12-18T11:43:12;13.50;36.70
29321;DHT22;16323;51.130;6.612;2022-12-18T11:45:43;13.50;36.50
29321;DHT22;16323;51.130;6.612;2022-12-18T11:48:16;13.50;36.20
29321;DHT22;16323;51.130;6.612;2022-12-18T11:50:48;13.50;36.10
29321;DHT22;16323;51.130;6.612;2022-12-18T11:53:17;13.50;36.20
29321;DHT22;16323;51.130;6.612;2022-12-18T11:55:51;13.50;36.10
29321;DHT22;16323;51.130;6.612;2022-12-18T11:58:28;13.50;36.30
29321;DHT22;16323;51.130;6.612;2022-12-18T12:01:05;13.40;36.20
29321;DHT22;16323;51.130;6.612;2022-12-18T12:06:34;13.50;36.30
29321;DHT22;16323;51.130;6.612;2022-12-18T12:09:12;13.50;36.30
29321;DHT22;16323;51.130;6.612;2022-12-18T12:11:50;13.40;36.30
29321;DHT22;16323;51.130;6.612;2022-12-18T12:14:31;13.50;36.40
29321;DHT22;16323;51.130;6.612;2022-12-18T12:17:05;13.40;36.20
29321;DHT22;16323;51.130;6.612;2022-12-18T12:19:40;13.50;36.50
29321;DHT22;16323;51.130;6.612;2022-12-18T12:22:20;13.50;36.40
29321;DHT22;16323;51.130;6.612;2022-12-18T12:25:01;13.50;36.00
29321;DHT22;16323;51.130;6.612;2022-12-18T12:27:37;13.60;35.90
29321;DHT22;16323;51.130;6.612;2022-12-18T12:30:11;13.50;35.80
29321;DHT22;16323;51.130;6.612;2022-12-18T12:32:53;13.50;35.70
29321;DHT22;16323;51.130;6.612;2022-12-18T12:35:32;13.50;35.90
29321;DHT22;16323;51.130;6.612;2022-12-18T12:38:07;13.50;35.90
29321;DHT22;16323;51.130;6.612;2022-12-18T12:40:38;13.50;35.90
29321;DHT22;16323;51.130;6.612;2022-12-18T12:43:27;13.50;36.20
29321;DHT22;16323;51.130;6.612;2022-12-18T12:45:57;13.50;36.20
29321;DHT22;16323;51.130;6.612;2022-12-18T12:48:38;13.50;36.20
29321;DHT22;16323;51.130;6.612;2022-12-18T12:51:11;13.50;36.20
29321;DHT22;16323;51.130;6.612;2022-12-18T12:53:39;13.50;36.20
29321;DHT22;16323;51.130;6.612;2022-12-18T12:56:08;13.50;36.20
29321;DHT22;16323;51.130;6.612;2022-12-18T12:58:41;13.50;36.40
29321;DHT22;16323;51.130;6.612;2022-12-18T13:01:17;13.50;37.70
29321;DHT22;16323;51.130;6.612;2022-12-18T13:03:54;13.50;36.10
29321;DHT22;16323;51.130;6.612;2022-12-18T13:06:32;13.50;35.90
29321;DHT22;16323;51.130;6.612;2022-12-18T13:09:02;13.50;35.70
29321;DHT22;16323;51.130;6.612;2022-12-18T13:11:40;13.60;35.70
29321;DHT22;16323;51.130;6.612;2022-12-18T13:14:29;13.60;35.60
29321;DHT22;16323;51.130;6.612;2022-12-18T13:17:17;13.60;38.20
29321;DHT22;16323;51.130;6.612;2022-12-18T13:20:04;13.60;36.20
29321;DHT22;16323;51.130;6.612;2022-12-18T13:22:35;13.60;36.00
29321;DHT22;16323;51.130;6.612;2022-12-18T13:25:03;13.60;35.90
29321;DHT22;16323;51.130;6.612;2022-12-18T13:27:57;13.60;36.90
29321;DHT22;16323;51.130;6.612;2022-12-18T13:30:53;13.60;36.20
29321;DHT22;16323;51.130;6.612;2022-12-18T13:33:49;13.60;36.20
29321;DHT22;16323;51.130;6.612;2022-12-18T13:36:32;13.50;36.20
29321;DHT22;16323;51.130;6.612;2022-12-18T13:39:32;13.60;36.40
29321;DHT22;16323;51.130;6.612;2022-12-18T13:42:34;13.60;36.10
29321;DHT22;16323;51.130;6.612;2022-12-18T13:45:39;13.60;35.60
29321;DHT22;16323;51.130;6.612;2022-12-18T13:48:18;13.70;35.80
29321;DHT22;16323;51.130;6.612;2022-12-18T13:50:52;13.70;35.90
29321;DHT22;16323;51.130;6.612;2022-12-18T13:53:22;13.70;35.90
29321;DHT22;16323;51.130;6.612;2022-12-18T13:55:50;13.70;35.90
29321;DHT22;16323;51.130;6.612;2022-12-18T13:58:17;13.70;35.90
29321;DHT22;16323;51.130;6.612;2022-12-18T14:00:44;13.70;35.90
29321;DHT22;16323;51.130;6.612;2022-12-18T14:03:18;13.60;35.70
29321;DHT22;16323;51.130;6.612;2022-12-18T14:05:45;13.70;35.90
29321;DHT22;16323;51.130;6.612;2022-12-18T14:08:20;13.70;37.00
29321;DHT22;16323;51.130;6.612;2022-12-18T14:10:56;13.80;35.70
29321;DHT22;16323;51.130;6.612;2022-12-18T14:13:26;13.90;39.60
29321;DHT22;16323;51.130;6.612;2022-12-18T14:15:55;13.90;36.00
29321;DHT22;16323;51.130;6.612;2022-12-18T14:18:24;13.90;35.90
29321;DHT22;16323;51.130;6.612;2022-12-18T14:20:53;13.80;35.80
29321;DHT22;16323;51.130;6.612;2022-12-18T14:23:31;13.80;35.50
29321;DHT22;16323;51.130;6.612;2022-12-18T14:25:59;13.80;36.00
29321;DHT22;16323;51.130;6.612;2022-12-18T14:28:26;13.90;36.70
29321;DHT22;16323;51.130;6.612;2022-12-18T14:30:54;13.90;37.50
29321;DHT22;16323;51.130;6.612;2022-12-18T14:33:23;14.00;38.70
29321;DHT22;16323;51.130;6.612;2022-12-18T14:35:56;14.00;38.60
29321;DHT22;16323;51.130;6.612;2022-12-18T14:38:30;14.00;39.50
29321;DHT22;16323;51.130;6.612;2022-12-18T14:40:58;14.00;37.80
29321;DHT22;16323;51.130;6.612;2022-12-18T14:43:25;14.00;39.10
29321;DHT22;16323;51.130;6.612;2022-12-18T14:45:53;14.10;40.00
29321;DHT22;16323;51.130;6.612;2022-12-18T14:48:21;14.10;40.10
29321;DHT22;16323;51.130;6.612;2022-12-18T14:50:58;14.00;37.70
29321;DHT22;16323;51.130;6.612;2022-12-18T14:53:33;14.20;43.50
29321;DHT22;16323;51.130;6.612;2022-12-18T14:56:01;14.30;41.20
29321;DHT22;16323;51.130;6.612;2022-12-18T14:58:28;14.10;37.70
29321;DHT22;16323;51.130;6.612;2022-12-18T15:00:55;14.00;37.10
29321;DHT22;16323;51.130;6.612;2022-12-18T15:03:22;13.90;37.00
29321;DHT22;16323;51.130;6.612;2022-12-18T15:05:49;13.90;38.10
29321;DHT22;16323;51.130;6.612;2022-12-18T15:08:35;13.90;36.70
29321;DHT22;16323;51.130;6.612;2022-12-18T15:11:02;13.90;36.60
29321;DHT22;16323;51.130;6.612;2022-12-18T15:13:29;13.90;36.60
29321;DHT22;16323;51.130;6.612;2022-12-18T15:15:57;13.90;36.40
29321;DHT22;16323;51.130;6.612;2022-12-18T15:18:31;13.80;36.50
29321;DHT22;16323;51.130;6.612;2022-12-18T15:21:06;13.70;36.50
29321;DHT22;16323;51.130;6.612;2022-12-18T15:23:45;13.80;36.50
29321;DHT22;16323;51.130;6.612;2022-12-18T15:26:14;13.70;36.50
29321;DHT22;16323;51.130;6.612;2022-12-18T15:28:46;13.70;36.50
29321;DHT22;16323;51.130;6.612;2022-12-18T15:31:26;13.70;36.80
29321;DHT22;16323;51.130;6.612;2022-12-18T15:34:10;13.70;36.60
29321;DHT22;16323;51.130;6.612;2022-12-18T15:36:38;13.70;36.60
29321;DHT22;16323;51.130;6.612;2022-12-18T15:39:11;13.70;36.70
29321;DHT22;16323;51.130;6.612;2022-12-18T15:41:38;13.70;39.20
29321;DHT22;16323;51.130;6.612;2022-12-18T15:44:22;13.80;36.60
29321;DHT22;16323;51.130;6.612;2022-12-18T15:46:48;13.70;36.20
29321;DHT22;16323;51.130;6.612;2022-12-18T15:49:15;13.70;36.20
29321;DHT22;16323;51.130;6.612;2022-12-18T15:51:42;13.70;36.30
29321;DHT22;16323;51.130;6.612;2022-12-18T15:54:13;13.70;36.20